LEBL/BCN METAR and TAF weather

Enter ICAO airport designator
Station Type Date Time Source
LEBL METAR 2020/08/06 00:30 UTC NOAA

LEBL 060030Z 32005KT CAVOK 24/20 Q1015 NOSIG


Station Type Date Time Source
LEBL Decoded METAR 2020/08/06 00:30 UTC NOAA

Barcelona / Aeropuerto, Spain (LEBL) 41-17N 002-04E 6M
Aug 05, 2020 - 08:30 PM EDT / 2020.08.06 0030 UTC
Wind: from the NW (320 degrees) at 6 MPH (5 KT):0
Visibility: greater than 7 mile(s):0
Temperature: 75 F (24 C)
Dew Point: 68 F (20 C)
Relative Humidity: 78%
Pressure (altimeter): 29.97 in. Hg (1015 hPa)
ob: LEBL 060030Z 32005KT CAVOK 24/20 Q1015 NOSIG
cycle: 0

Station Type Date Time Source
LEBL TAF 2020/08/05 18:27 UTC NOAA

TAF LEBL 051700Z 0518/0618 22008KT 9999 FEW025 TX30/0612Z TN22/0606Z
TEMPO 0519/0524 VRB04KT
BECMG 0522/0524 33007KT
BECMG 0607/0609 20012KT

Example: see airport list